Time;durP1;ratioP1;P1;durP2;ratioP2;P2;SDS_P1;SDS_P2;PMS_P1;PMS_P2;Temp;Humidity;BMP_temperature;BMP_pressure;BME280_temperature;BME280_humidity;BME280_pressure;Samples;Min_cycle;Max_cycle;Signal;HPM_P1;HPM_P2
2023/09/01 00:00:12;;;;;;;103.20;55.05;;;18.20;90.90;;;;;;4959794;28;91644;-76
2023/09/01 00:02:39;;;;;;;102.95;54.00;;;18.20;90.50;;;;;;4918089;28;92919;-76
2023/09/01 00:05:05;;;;;;;104.03;54.63;;;18.20;90.60;;;;;;4924059;28;91811;-75
2023/09/01 00:07:31;;;;;;;102.00;54.20;;;18.20;90.60;;;;;;4967595;28;91459;-77
2023/09/01 00:09:57;;;;;;;102.68;54.85;;;18.20;90.60;;;;;;4962373;28;92133;-77
2023/09/01 00:12:22;;;;;;;102.32;54.40;;;18.20;90.60;;;;;;4970208;28;90990;-75
2023/09/01 00:14:48;;;;;;;103.30;54.80;;;18.20;90.70;;;;;;4958525;28;91096;-77
2023/09/01 00:17:14;;;;;;;103.30;54.97;;;18.20;90.60;;;;;;4967407;28;88847;-75
2023/09/01 00:19:40;;;;;;;102.07;54.40;;;18.20;90.60;;;;;;4963774;28;90438;-76
2023/09/01 00:22:05;;;;;;;102.20;54.05;;;18.20;90.50;;;;;;4967138;28;91792;-77
2023/09/01 00:24:32;;;;;;;103.32;55.17;;;18.20;90.60;;;;;;4970115;28;90365;-78
2023/09/01 00:26:58;;;;;;;103.13;54.78;;;18.20;90.50;;;;;;4961811;28;89745;-77
2023/09/01 00:29:24;;;;;;;103.03;54.42;;;18.20;90.50;;;;;;4969192;28;89336;-77
2023/09/01 00:31:49;;;;;;;103.60;54.55;;;18.20;90.90;;;;;;4964076;28;92734;-77
2023/09/01 00:34:15;;;;;;;105.55;54.50;;;18.20;90.70;;;;;;4969480;28;90866;-74
2023/09/01 00:36:42;;;;;;;102.65;54.80;;;18.20;90.80;;;;;;4957842;28;92773;-77
2023/09/01 00:39:08;;;;;;;101.22;54.10;;;18.20;90.50;;;;;;4967665;28;90236;-77
2023/09/01 00:41:34;;;;;;;102.63;54.53;;;18.20;90.50;;;;;;4961480;28;90411;-76
2023/09/01 00:44:00;;;;;;;101.70;54.45;;;18.30;90.60;;;;;;4966639;28;90990;-74
2023/09/01 00:46:26;;;;;;;102.40;54.47;;;18.30;90.70;;;;;;4961719;28;90586;-75
2023/09/01 00:48:55;;;;;;;101.38;54.53;;;18.20;90.40;;;;;;4967710;28;90744;-78
2023/09/01 00:51:21;;;;;;;102.13;54.90;;;18.20;90.40;;;;;;4970297;28;91410;-75
2023/09/01 00:53:47;;;;;;;104.20;54.72;;;18.20;90.50;;;;;;4964556;28;91626;-77
2023/09/01 00:56:13;;;;;;;102.47;54.78;;;18.30;90.60;;;;;;4964843;28;92766;-77
2023/09/01 00:58:38;;;;;;;103.32;55.03;;;18.30;90.60;;;;;;4961042;28;89270;-76
2023/09/01 01:01:04;;;;;;;102.38;54.55;;;18.20;90.40;;;;;;4972155;28;89731;-77
2023/09/01 01:03:31;;;;;;;102.13;54.78;;;18.30;90.40;;;;;;4937989;28;91973;-73
2023/09/01 01:06:15;;;;;;;102.97;54.50;;;18.30;90.40;;;;;;4974917;28;90318;-76
2023/09/01 01:09:08;;;;;;;102.07;54.47;;;18.30;90.30;;;;;;4970615;28;90187;-76
2023/09/01 01:12:16;;;;;;;102.70;54.63;;;18.30;90.30;;;;;;4967504;28;93360;-76
2023/09/01 01:14:47;;;;;;;101.47;54.63;;;18.30;90.40;;;;;;4970172;28;91718;-77
2023/09/01 01:17:18;;;;;;;101.93;54.37;;;18.30;90.40;;;;;;4966833;28;91080;-76
2023/09/01 01:19:59;;;;;;;101.10;54.15;;;18.30;90.30;;;;;;4949786;28;91096;-75
2023/09/01 01:22:40;;;;;;;101.68;54.30;;;18.30;90.40;;;;;;4965328;28;90034;-77
2023/09/01 01:25:11;;;;;;;102.75;54.50;;;18.40;90.40;;;;;;4951525;28;92448;-75
2023/09/01 01:27:38;;;;;;;103.73;54.57;;;18.40;90.30;;;;;;4949524;28;91463;-74
2023/09/01 01:30:05;;;;;;;102.03;54.58;;;18.40;90.30;;;;;;4960466;28;89433;-75
2023/09/01 01:32:31;;;;;;;101.72;54.47;;;18.40;90.40;;;;;;4970806;28;88343;-77
2023/09/01 01:35:22;;;;;;;102.95;54.60;;;18.40;90.30;;;;;;4966444;28;92376;-77
2023/09/01 01:38:27;;;;;;;103.30;54.72;;;18.40;90.30;;;;;;4934100;28;91211;-73
2023/09/01 01:41:02;;;;;;;103.13;54.33;;;18.40;90.40;;;;;;4973115;28;91013;-77
2023/09/01 01:43:29;;;;;;;101.57;54.10;;;18.40;90.50;;;;;;4974726;28;90035;-77
2023/09/01 01:45:57;;;;;;;102.57;54.20;;;18.40;90.30;;;;;;4969913;28;89407;-78
2023/09/01 01:48:22;;;;;;;101.78;54.47;;;18.40;90.50;;;;;;4957277;28;93109;-76
2023/09/01 01:50:48;;;;;;;102.30;54.90;;;18.40;90.30;;;;;;4970130;28;89714;-77
2023/09/01 01:53:13;;;;;;;101.63;54.25;;;18.40;90.30;;;;;;4975862;28;90295;-75
2023/09/01 01:55:42;;;;;;;101.68;54.40;;;18.40;90.20;;;;;;4968753;28;93997;-77
2023/09/01 01:58:07;;;;;;;101.95;54.45;;;18.50;90.20;;;;;;4980229;28;91101;-74
2023/09/01 02:00:33;;;;;;;101.88;54.42;;;18.50;90.80;;;;;;4948216;28;90376;-76
2023/09/01 02:02:59;;;;;;;102.20;54.72;;;18.50;90.30;;;;;;4972573;28;90054;-75
2023/09/01 02:05:25;;;;;;;102.95;55.03;;;18.50;90.20;;;;;;4971310;28;90769;-76
2023/09/01 02:07:51;;;;;;;101.25;54.33;;;18.50;90.40;;;;;;4945682;28;90757;-77
2023/09/01 02:10:17;;;;;;;102.65;54.38;;;18.50;90.10;;;;;;4976471;28;90359;-77
2023/09/01 02:12:43;;;;;;;101.80;54.22;;;18.50;90.40;;;;;;4973478;28;89847;-77
2023/09/01 02:15:10;;;;;;;105.05;54.35;;;18.50;90.10;;;;;;4960425;28;92607;-77
2023/09/01 02:17:36;;;;;;;101.30;54.22;;;18.50;90.10;;;;;;4973220;28;89510;-77
2023/09/01 02:20:16;;;;;;;102.40;54.33;;;18.50;90.10;;;;;;4976563;28;90280;-76
2023/09/01 02:22:45;;;;;;;101.80;54.22;;;18.50;90.10;;;;;;4954853;28;88982;-77
2023/09/01 02:25:12;;;;;;;101.78;54.25;;;18.50;90.20;;;;;;4977641;28;90734;-74
2023/09/01 02:27:40;;;;;;;101.03;54.28;;;18.50;90.10;;;;;;4957572;28;89621;-79
2023/09/01 02:30:10;;;;;;;101.75;54.40;;;18.50;90.00;;;;;;4976539;28;90509;-77
2023/09/01 02:32:37;;;;;;;103.10;54.40;;;18.50;90.00;;;;;;4974323;28;89484;-76
2023/09/01 02:35:06;;;;;;;102.85;54.70;;;18.60;90.40;;;;;;4974719;28;90685;-76
2023/09/01 02:37:32;;;;;;;101.97;54.42;;;18.60;90.20;;;;;;4973862;28;91650;-78
2023/09/01 02:39:58;;;;;;;101.93;54.33;;;18.60;90.00;;;;;;4956366;28;89896;-76
2023/09/01 02:42:23;;;;;;;102.15;54.47;;;18.60;89.80;;;;;;4972066;28;89953;-78
2023/09/01 02:44:49;;;;;;;101.22;54.20;;;18.60;90.20;;;;;;4975766;28;90574;-77
2023/09/01 02:47:15;;;;;;;102.07;54.25;;;18.60;90.50;;;;;;4975120;28;89017;-77
2023/09/01 02:49:40;;;;;;;101.18;54.08;;;18.60;90.00;;;;;;4974319;28;89518;-78
2023/09/01 02:52:06;;;;;;;102.72;54.22;;;18.60;90.00;;;;;;4974748;28;91919;-76
2023/09/01 02:54:32;;;;;;;103.20;54.47;;;18.60;90.50;;;;;;4973222;28;90677;-77
2023/09/01 02:56:58;;;;;;;101.25;54.15;;;18.60;90.10;;;;;;4971958;28;91826;-74
2023/09/01 02:59:23;;;;;;;100.82;54.20;;;18.70;89.80;;;;;;4974720;28;89897;-78
2023/09/01 03:01:49;;;;;;;101.80;54.28;;;18.60;90.60;;;;;;4957459;28;91203;-74
2023/09/01 03:04:15;;;;;;;101.47;53.97;;;18.70;90.10;;;;;;4952673;28;92154;-74
2023/09/01 03:06:41;;;;;;;101.78;54.38;;;18.60;89.80;;;;;;4976259;28;90206;-77
2023/09/01 03:09:09;;;;;;;100.70;53.95;;;18.60;89.70;;;;;;4971113;28;90952;-78
2023/09/01 03:11:35;;;;;;;102.95;54.10;;;18.60;89.60;;;;;;4958843;28;93656;-78
2023/09/01 03:14:00;;;;;;;101.32;54.10;;;18.70;90.00;;;;;;4961290;28;91113;-76
2023/09/01 03:16:30;;;;;;;101.90;53.88;;;18.60;89.80;;;;;;4972808;28;89437;-77
2023/09/01 03:18:59;;;;;;;101.22;54.03;;;18.60;90.00;;;;;;4973528;28;91151;-76
2023/09/01 03:21:26;;;;;;;100.63;53.92;;;18.60;90.50;;;;;;4976498;28;89945;-78
2023/09/01 03:23:52;;;;;;;100.50;53.85;;;18.60;90.10;;;;;;4967672;28;90885;-75
2023/09/01 03:26:19;;;;;;;100.78;53.80;;;18.60;90.00;;;;;;4961934;28;90847;-77
2023/09/01 03:28:45;;;;;;;100.68;53.90;;;18.60;90.00;;;;;;4953029;28;90339;-74
2023/09/01 03:31:11;;;;;;;101.32;54.13;;;18.70;90.10;;;;;;4976916;28;90979;-77
2023/09/01 03:33:36;;;;;;;101.80;53.97;;;18.70;90.10;;;;;;4973690;28;89792;-76
2023/09/01 03:36:07;;;;;;;101.07;53.95;;;18.70;90.20;;;;;;4977111;28;89425;-76
2023/09/01 03:38:33;;;;;;;101.55;54.08;;;18.70;89.80;;;;;;4955491;28;90670;-77
2023/09/01 03:41:04;;;;;;;101.13;54.00;;;18.60;90.00;;;;;;4976123;28;90918;-77
2023/09/01 03:43:30;;;;;;;101.85;53.90;;;18.70;89.90;;;;;;4956759;28;91853;-76
2023/09/01 03:45:57;;;;;;;101.10;53.95;;;18.60;89.90;;;;;;4969390;28;90470;-74
2023/09/01 03:48:23;;;;;;;101.15;54.05;;;18.60;90.00;;;;;;4973807;28;90390;-78
2023/09/01 03:51:08;;;;;;;102.28;54.35;;;18.60;90.10;;;;;;4966726;28;91060;-77
2023/09/01 03:53:34;;;;;;;101.15;54.00;;;18.70;90.10;;;;;;4957224;28;92045;-77
2023/09/01 03:56:02;;;;;;;101.72;53.97;;;18.70;90.20;;;;;;4970456;28;89965;-77
2023/09/01 03:58:28;;;;;;;101.10;53.92;;;18.70;90.50;;;;;;4977939;28;89686;-77
2023/09/01 04:00:53;;;;;;;101.00;53.95;;;18.70;89.60;;;;;;4970378;28;91122;-77
2023/09/01 04:03:19;;;;;;;102.15;54.17;;;18.70;90.20;;;;;;4968518;28;91524;-77
2023/09/01 04:05:45;;;;;;;101.03;53.90;;;18.70;90.30;;;;;;4951144;28;93899;-76
2023/09/01 04:08:10;;;;;;;101.68;53.83;;;18.70;90.00;;;;;;4964514;28;90252;-74
2023/09/01 04:10:38;;;;;;;100.68;53.90;;;18.70;90.00;;;;;;4972972;28;89564;-78
2023/09/01 04:13:04;;;;;;;102.50;54.03;;;18.70;89.80;;;;;;4975759;28;89821;-78
2023/09/01 04:15:30;;;;;;;101.55;53.95;;;18.70;90.20;;;;;;4981022;28;90480;-78
2023/09/01 04:17:55;;;;;;;102.80;53.95;;;18.70;90.10;;;;;;4970661;28;90282;-77
2023/09/01 04:20:21;;;;;;;100.53;53.70;;;18.70;89.90;;;;;;4976729;28;89303;-79
2023/09/01 04:22:47;;;;;;;101.00;53.75;;;18.70;90.20;;;;;;4966936;28;90413;-77
2023/09/01 04:25:13;;;;;;;100.45;53.78;;;18.70;89.80;;;;;;4977828;28;90002;-77
2023/09/01 04:27:38;;;;;;;100.18;53.55;;;18.70;90.00;;;;;;4964114;28;92099;-75
2023/09/01 04:30:05;;;;;;;101.03;53.78;;;18.70;90.00;;;;;;4972905;28;91138;-74
2023/09/01 04:32:30;;;;;;;102.13;53.90;;;18.70;89.90;;;;;;4950111;28;94463;-76
2023/09/01 04:34:56;;;;;;;101.72;53.78;;;18.70;90.40;;;;;;4967097;28;90443;-77
2023/09/01 04:37:21;;;;;;;100.47;53.72;;;18.70;89.90;;;;;;4955292;28;91137;-77
2023/09/01 04:39:47;;;;;;;101.30;53.83;;;18.80;90.00;;;;;;4973499;28;89639;-76
2023/09/01 04:42:12;;;;;;;99.80;53.28;;;18.80;90.30;;;;;;4971050;28;91036;-76
2023/09/01 04:44:39;;;;;;;102.25;54.20;;;18.70;90.60;;;;;;4970882;28;90493;-76
2023/09/01 04:47:05;;;;;;;100.60;53.78;;;18.80;90.30;;;;;;4947999;28;91976;-76
2023/09/01 04:49:31;;;;;;;101.72;53.63;;;18.80;90.00;;;;;;4949115;28;95892;-76
2023/09/01 04:51:57;;;;;;;101.38;53.88;;;18.80;90.40;;;;;;4976112;28;92331;-76
2023/09/01 04:54:23;;;;;;;100.38;53.25;;;18.80;90.30;;;;;;4974381;28;92055;-77
2023/09/01 04:56:48;;;;;;;101.13;53.88;;;18.70;89.80;;;;;;4971745;28;91512;-77
2023/09/01 04:59:14;;;;;;;101.45;53.85;;;18.80;89.80;;;;;;4966179;28;90199;-78
2023/09/01 05:01:40;;;;;;;102.82;54.35;;;18.80;90.10;;;;;;4952474;28;92068;-76
2023/09/01 05:04:07;;;;;;;101.70;53.97;;;18.80;90.40;;;;;;4965112;28;91585;-76
2023/09/01 05:06:33;;;;;;;102.00;54.15;;;18.80;90.30;;;;;;4974070;28;89890;-77
2023/09/01 05:08:58;;;;;;;103.50;53.85;;;18.80;90.20;;;;;;4971141;28;90127;-78
2023/09/01 05:11:24;;;;;;;101.72;53.97;;;18.80;90.40;;;;;;4968219;28;90924;-73
2023/09/01 05:13:50;;;;;;;101.43;54.13;;;18.80;90.20;;;;;;4958295;28;91597;-81
2023/09/01 05:16:15;;;;;;;103.03;54.28;;;18.80;90.20;;;;;;4974398;28;89831;-79
2023/09/01 05:18:41;;;;;;;102.45;54.17;;;18.80;90.00;;;;;;4968724;28;89539;-79
2023/09/01 05:21:07;;;;;;;101.32;53.95;;;18.80;90.50;;;;;;4967063;28;90760;-76
2023/09/01 05:23:34;;;;;;;105.50;54.58;;;18.90;90.30;;;;;;4976608;28;91123;-78
2023/09/01 05:26:00;;;;;;;103.25;54.55;;;18.80;90.40;;;;;;4966290;28;89731;-78
2023/09/01 05:28:26;;;;;;;104.55;54.65;;;18.80;90.20;;;;;;4979365;28;90778;-81
2023/09/01 05:30:54;;;;;;;102.22;54.22;;;18.90;90.90;;;;;;4970356;28;90145;-80
2023/09/01 05:33:20;;;;;;;101.35;53.88;;;18.90;90.40;;;;;;4963552;28;93105;-79
2023/09/01 05:35:46;;;;;;;102.53;54.05;;;18.90;90.40;;;;;;4951715;28;91162;-79
2023/09/01 05:38:11;;;;;;;102.93;54.25;;;18.90;90.40;;;;;;4958161;28;89215;-78
2023/09/01 05:40:37;;;;;;;101.20;54.28;;;18.90;90.50;;;;;;4968564;28;90272;-78
2023/09/01 05:43:03;;;;;;;104.05;54.63;;;18.90;90.20;;;;;;4962382;28;91848;-79
2023/09/01 05:45:28;;;;;;;102.57;54.33;;;18.90;90.10;;;;;;4969503;28;90480;-79
2023/09/01 05:47:56;;;;;;;100.88;54.13;;;18.90;90.90;;;;;;4951099;28;89228;-80
2023/09/01 05:50:21;;;;;;;103.95;54.28;;;18.80;90.30;;;;;;4974745;28;89188;-79
2023/09/01 05:52:47;;;;;;;103.53;54.38;;;18.90;90.30;;;;;;4980707;28;89820;-78
2023/09/01 05:55:13;;;;;;;101.10;54.45;;;18.90;90.30;;;;;;4965947;28;90747;-77
2023/09/01 05:57:40;;;;;;;102.30;54.65;;;18.90;90.00;;;;;;4967389;28;89612;-77
2023/09/01 06:00:07;;;;;;;102.03;54.55;;;18.90;90.10;;;;;;4982820;28;89358;-77
2023/09/01 06:02:32;;;;;;;101.20;54.25;;;18.90;90.10;;;;;;4986149;28;89837;-76
2023/09/01 06:04:58;;;;;;;102.18;54.55;;;18.90;90.20;;;;;;4980154;28;89823;-78
2023/09/01 06:07:23;;;;;;;103.75;54.10;;;18.90;90.20;;;;;;4975651;28;89994;-76
2023/09/01 06:09:49;;;;;;;103.43;54.40;;;18.90;90.40;;;;;;4956419;28;90487;-77
2023/09/01 06:12:15;;;;;;;103.70;55.13;;;18.90;90.60;;;;;;4951854;28;90604;-77
2023/09/01 06:14:41;;;;;;;106.00;54.92;;;19.00;90.40;;;;;;4975871;28;90164;-78
2023/09/01 06:17:06;;;;;;;105.20;55.38;;;18.90;91.00;;;;;;4974554;28;89399;-77
2023/09/01 06:19:32;;;;;;;104.35;55.15;;;18.90;90.70;;;;;;4975164;28;89487;-78
2023/09/01 06:21:57;;;;;;;102.72;54.75;;;18.90;90.40;;;;;;4963825;28;90569;-78
2023/09/01 06:24:23;;;;;;;104.80;55.30;;;18.90;90.10;;;;;;4976054;28;91508;-79
2023/09/01 06:26:49;;;;;;;105.80;54.63;;;18.90;90.60;;;;;;4948980;28;90314;-77
2023/09/01 06:29:14;;;;;;;106.57;54.78;;;18.90;90.60;;;;;;4974892;28;90699;-79
2023/09/01 06:31:40;;;;;;;104.35;54.97;;;19.00;90.60;;;;;;4971314;28;93083;-78
2023/09/01 06:34:05;;;;;;;109.30;55.65;;;19.00;90.50;;;;;;4971729;28;92050;-78
2023/09/01 06:36:31;;;;;;;105.38;54.50;;;19.00;90.60;;;;;;4972748;28;89851;-77
2023/09/01 06:38:57;;;;;;;104.90;55.10;;;19.00;90.40;;;;;;4984151;28;89519;-75
2023/09/01 06:41:22;;;;;;;105.55;54.60;;;19.00;90.30;;;;;;4969336;28;90436;-76
2023/09/01 06:43:48;;;;;;;108.22;54.80;;;19.00;95.00;;;;;;4982562;28;89900;-75
2023/09/01 06:46:14;;;;;;;104.72;55.08;;;18.90;96.00;;;;;;4991351;22;91638;-44
2023/09/01 06:48:40;;;;;;;104.93;55.38;;;19.00;95.60;;;;;;4965623;28;90740;-45
2023/09/01 06:51:06;;;;;;;102.78;54.95;;;19.00;95.50;;;;;;4971810;28;91067;-44
2023/09/01 06:53:33;;;;;;;105.60;55.08;;;19.00;96.60;;;;;;4965517;28;91874;-45
2023/09/01 06:55:58;;;;;;;104.70;54.83;;;19.10;95.80;;;;;;4967825;28;90084;-44
2023/09/01 06:58:24;;;;;;;102.85;54.85;;;19.00;97.10;;;;;;4961086;28;91022;-43
2023/09/01 07:00:51;;;;;;;104.25;55.15;;;19.00;97.30;;;;;;4966388;28;90150;-44
2023/09/01 07:03:17;;;;;;;102.25;55.25;;;19.10;96.90;;;;;;4964912;28;90693;-44
2023/09/01 07:05:43;;;;;;;105.18;55.17;;;19.10;97.60;;;;;;4965649;28;90639;-45
2023/09/01 07:08:14;;;;;;;109.78;56.70;;;19.10;97.10;;;;;;4970975;28;93556;-44
2023/09/01 07:10:39;;;;;;;106.07;56.03;;;19.10;96.90;;;;;;4966550;28;90788;-45
2023/09/01 07:13:10;;;;;;;111.38;55.67;;;19.10;97.00;;;;;;4969024;28;90422;-44
2023/09/01 07:15:35;;;;;;;108.00;55.80;;;19.20;96.90;;;;;;4967496;28;89027;-45
2023/09/01 07:18:01;;;;;;;104.78;55.13;;;19.10;97.10;;;;;;4961927;28;89861;-45
2023/09/01 07:20:27;;;;;;;105.50;55.13;;;19.10;97.90;;;;;;4958047;28;90124;-44
2023/09/01 07:22:52;;;;;;;103.88;55.08;;;19.00;98.00;;;;;;4969247;28;90978;-44
2023/09/01 07:25:18;;;;;;;105.00;55.45;;;19.20;97.00;;;;;;4963767;28;90992;-45
2023/09/01 07:27:44;;;;;;;103.10;54.92;;;19.10;97.70;;;;;;4951255;28;91125;-45
2023/09/01 07:30:13;;;;;;;105.90;54.92;;;19.10;98.20;;;;;;4958283;28;91010;-44
2023/09/01 07:32:40;;;;;;;105.13;54.95;;;19.10;97.60;;;;;;4964473;28;90205;-42
2023/09/01 07:35:06;;;;;;;104.43;54.90;;;19.20;97.60;;;;;;4963297;28;90636;-44
2023/09/01 07:37:32;;;;;;;103.72;54.22;;;19.10;97.60;;;;;;4967140;28;89479;-44
2023/09/01 07:39:57;;;;;;;106.65;55.38;;;19.10;97.60;;;;;;4964912;28;90313;-44
2023/09/01 07:42:23;;;;;;;102.97;54.75;;;19.10;97.10;;;;;;4970320;28;91717;-44
2023/09/01 07:44:48;;;;;;;102.72;54.22;;;19.30;96.70;;;;;;4973728;28;89784;-46
2023/09/01 07:47:18;;;;;;;103.80;54.45;;;19.30;97.30;;;;;;4958845;28;91473;-44
2023/09/01 07:49:44;;;;;;;102.35;54.42;;;19.30;97.30;;;;;;4950322;28;90081;-44
2023/09/01 07:52:11;;;;;;;106.05;54.70;;;19.30;96.90;;;;;;4961258;28;89853;-44
2023/09/01 07:54:38;;;;;;;106.65;55.15;;;19.30;97.30;;;;;;4963370;28;90758;-44
2023/09/01 07:57:04;;;;;;;107.22;55.28;;;19.40;96.80;;;;;;4964323;28;90772;-44
2023/09/01 07:59:30;;;;;;;104.55;54.10;;;19.40;96.20;;;;;;4962180;28;89857;-44
2023/09/01 08:01:56;;;;;;;102.60;54.33;;;19.40;96.60;;;;;;4984634;28;90113;-44
2023/09/01 08:04:21;;;;;;;102.68;54.28;;;19.40;96.10;;;;;;4976178;28;89269;-45
2023/09/01 08:06:47;;;;;;;102.80;54.45;;;19.50;96.00;;;;;;4987252;28;90892;-44
2023/09/01 08:09:13;;;;;;;102.80;54.08;;;19.40;96.50;;;;;;4982003;28;91182;-46
2023/09/01 08:11:39;;;;;;;101.57;54.30;;;19.30;97.10;;;;;;4984804;28;91568;-45
2023/09/01 08:14:04;;;;;;;101.18;54.13;;;19.20;97.10;;;;;;4989733;28;89666;-46
2023/09/01 08:16:30;;;;;;;101.90;54.10;;;19.30;96.90;;;;;;4971137;28;90377;-45
2023/09/01 08:18:59;;;;;;;101.38;54.15;;;19.40;96.90;;;;;;4981031;28;89936;-44
2023/09/01 08:21:25;;;;;;;101.68;54.25;;;19.30;97.00;;;;;;4984765;28;91271;-44
2023/09/01 08:23:50;;;;;;;106.00;54.60;;;19.20;97.80;;;;;;4981126;28;90179;-46
2023/09/01 08:26:16;;;;;;;105.00;54.50;;;19.30;97.40;;;;;;4989183;28;91311;-46
2023/09/01 08:28:42;;;;;;;101.78;54.22;;;19.20;97.50;;;;;;4987353;28;91164;-46
2023/09/01 08:31:07;;;;;;;102.15;54.47;;;19.40;97.00;;;;;;4986447;28;91339;-46
2023/09/01 08:33:33;;;;;;;103.03;54.78;;;19.50;96.40;;;;;;4992163;28;90473;-46
2023/09/01 08:36:03;;;;;;;105.68;54.75;;;19.30;98.00;;;;;;4983422;28;91233;-45
2023/09/01 08:38:29;;;;;;;102.00;54.15;;;19.30;97.70;;;;;;4985218;28;93740;-44
2023/09/01 08:41:05;;;;;;;101.97;54.28;;;19.40;97.50;;;;;;4986593;28;91550;-45
2023/09/01 08:43:42;;;;;;;106.22;54.80;;;19.50;96.70;;;;;;4979963;28;93961;-44
2023/09/01 08:46:11;;;;;;;103.20;54.58;;;19.60;96.60;;;;;;4984962;28;90649;-46
2023/09/01 08:48:37;;;;;;;102.45;54.28;;;19.50;96.90;;;;;;4977107;28;89950;-45
2023/09/01 08:51:05;;;;;;;102.22;54.67;;;19.60;96.60;;;;;;4988192;28;89526;-44
2023/09/01 08:53:31;;;;;;;111.82;55.00;;;19.60;96.80;;;;;;4977802;28;89594;-44
2023/09/01 08:55:57;;;;;;;104.53;54.65;;;19.70;96.50;;;;;;4983518;28;89495;-43
2023/09/01 08:58:23;;;;;;;104.57;54.67;;;19.90;96.00;;;;;;4985659;28;94165;-48
2023/09/01 09:00:49;;;;;;;103.63;54.60;;;19.80;96.80;;;;;;4981465;28;91351;-46
2023/09/01 09:03:17;;;;;;;103.03;54.70;;;19.70;96.20;;;;;;4982962;28;91534;-44
2023/09/01 09:05:44;;;;;;;103.22;54.67;;;19.70;96.40;;;;;;4984854;28;89814;-45
2023/09/01 09:08:10;;;;;;;102.53;54.28;;;19.60;97.00;;;;;;4984097;28;90634;-46
2023/09/01 09:10:39;;;;;;;103.43;54.55;;;19.70;96.50;;;;;;4980593;28;89863;-45
2023/09/01 09:13:29;;;;;;;106.15;54.47;;;19.70;96.10;;;;;;4986206;28;89521;-47
2023/09/01 09:16:13;;;;;;;102.97;54.65;;;19.80;96.80;;;;;;4980688;28;89576;-45
2023/09/01 09:18:41;;;;;;;105.53;54.97;;;19.90;96.80;;;;;;4980428;28;89605;-44
2023/09/01 09:21:29;;;;;;;104.30;55.03;;;20.00;96.90;;;;;;4980004;28;91778;-43
2023/09/01 09:23:56;;;;;;;103.22;54.53;;;20.00;96.40;;;;;;4980120;28;89635;-43
2023/09/01 09:26:32;;;;;;;103.32;54.55;;;20.20;95.10;;;;;;4986692;28;90688;-47
2023/09/01 09:29:06;;;;;;;103.05;54.28;;;20.30;95.70;;;;;;4995783;28;90971;-45
2023/09/01 09:31:36;;;;;;;106.07;54.58;;;20.30;95.50;;;;;;4982180;28;91676;-43
2023/09/01 09:34:19;;;;;;;105.80;55.08;;;20.40;95.50;;;;;;4984980;28;89531;-45
2023/09/01 09:36:47;;;;;;;105.50;54.83;;;20.50;94.60;;;;;;4983217;28;89641;-45
2023/09/01 09:39:26;;;;;;;107.55;55.20;;;20.60;94.50;;;;;;4982871;28;90238;-43
2023/09/01 09:41:53;;;;;;;105.10;55.42;;;20.60;94.90;;;;;;4980676;28;90777;-43
2023/09/01 09:44:33;;;;;;;105.80;55.42;;;20.60;94.80;;;;;;4988692;28;88732;-44
2023/09/01 09:47:00;;;;;;;107.53;55.35;;;20.70;94.50;;;;;;4977660;28;90248;-45
2023/09/01 09:49:26;;;;;;;107.13;55.85;;;20.90;94.80;;;;;;4977489;28;90284;-43
2023/09/01 09:51:53;;;;;;;107.30;55.92;;;21.00;94.60;;;;;;4981153;28;91967;-46
2023/09/01 09:54:21;;;;;;;108.18;55.88;;;21.00;93.80;;;;;;4996184;28;89590;-47
2023/09/01 09:56:50;;;;;;;108.55;55.45;;;21.00;93.90;;;;;;4985872;28;89605;-46
2023/09/01 09:59:22;;;;;;;107.28;55.78;;;21.00;94.00;;;;;;4987816;28;89633;-44
2023/09/01 10:01:49;;;;;;;111.00;56.00;;;20.90;93.70;;;;;;4981102;28;89829;-45
2023/09/01 10:04:17;;;;;;;107.82;56.13;;;20.90;94.40;;;;;;4977730;28;90491;-44
2023/09/01 10:06:44;;;;;;;108.55;56.08;;;21.10;93.20;;;;;;4977609;28;89847;-46
2023/09/01 10:09:10;;;;;;;107.05;55.97;;;21.20;94.20;;;;;;4983030;28;93420;-45
2023/09/01 10:11:37;;;;;;;107.03;56.22;;;21.40;92.50;;;;;;4980548;28;91215;-45
2023/09/01 10:14:05;;;;;;;107.38;55.97;;;21.30;93.00;;;;;;4985258;28;95072;-46
2023/09/01 10:16:30;;;;;;;109.00;55.97;;;21.20;93.30;;;;;;4985037;28;91342;-45
2023/09/01 10:18:56;;;;;;;108.07;56.13;;;21.10;94.90;;;;;;4981267;28;92003;-44
2023/09/01 10:21:22;;;;;;;106.85;56.35;;;21.10;94.50;;;;;;4982081;28;90671;-43
2023/09/01 10:23:48;;;;;;;108.50;56.03;;;21.20;94.10;;;;;;4977921;28;90314;-45
2023/09/01 10:26:28;;;;;;;106.65;55.72;;;21.40;93.60;;;;;;4981295;28;91100;-44
2023/09/01 10:28:59;;;;;;;105.83;55.67;;;21.40;93.90;;;;;;4977478;28;89961;-46
2023/09/01 10:31:25;;;;;;;106.80;56.08;;;21.40;93.60;;;;;;4973255;28;95138;-42
2023/09/01 10:34:13;;;;;;;108.45;56.38;;;21.40;93.30;;;;;;4977481;28;90202;-45
2023/09/01 10:37:34;;;;;;;109.38;56.42;;;21.30;94.50;;;;;;4986061;28;90995;-43
2023/09/01 10:40:00;;;;;;;107.93;55.90;;;21.30;95.60;;;;;;4917062;28;89970;-44
2023/09/01 10:42:48;;;;;;;106.75;56.22;;;21.30;94.50;;;;;;4966208;28;94781;-43
2023/09/01 10:45:14;;;;;;;107.43;56.00;;;21.40;94.50;;;;;;4979190;28;89547;-46
2023/09/01 10:47:41;;;;;;;106.38;56.03;;;21.40;94.30;;;;;;4985098;28;90160;-46
2023/09/01 10:50:07;;;;;;;107.93;56.28;;;21.40;94.70;;;;;;4986471;28;92069;-45
2023/09/01 10:52:32;;;;;;;107.88;55.95;;;21.40;94.10;;;;;;4991815;28;89715;-45
2023/09/01 10:55:05;;;;;;;109.15;56.33;;;21.50;93.80;;;;;;4986410;28;90001;-48
2023/09/01 10:57:51;;;;;;;107.90;56.22;;;21.50;93.50;;;;;;4992663;28;93405;-45
2023/09/01 11:00:27;;;;;;;107.85;56.15;;;21.60;93.20;;;;;;4986192;28;91238;-44
2023/09/01 11:02:53;;;;;;;107.97;56.50;;;21.60;93.10;;;;;;4991962;28;91128;-44
2023/09/01 11:05:38;;;;;;;108.25;56.58;;;21.70;92.60;;;;;;4987656;28;89437;-44
2023/09/01 11:08:12;;;;;;;108.10;56.35;;;21.70;92.60;;;;;;4985035;28;90466;-44
2023/09/01 11:10:38;;;;;;;107.38;56.58;;;21.80;92.90;;;;;;4977413;28;90621;-46
2023/09/01 11:13:17;;;;;;;108.43;56.60;;;21.90;92.30;;;;;;4991361;28;90397;-45
2023/09/01 11:15:50;;;;;;;108.05;56.58;;;22.00;91.50;;;;;;4978170;28;92621;-43
2023/09/01 11:18:23;;;;;;;107.85;56.53;;;22.10;91.40;;;;;;4985498;28;89607;-43
2023/09/01 11:21:00;;;;;;;109.38;56.83;;;22.10;90.80;;;;;;4983863;28;93566;-43
2023/09/01 11:23:27;;;;;;;107.72;56.40;;;21.90;92.30;;;;;;4972035;28;90856;-44
2023/09/01 11:25:57;;;;;;;106.80;56.33;;;21.90;91.40;;;;;;4987611;28;90066;-45
2023/09/01 11:28:26;;;;;;;108.50;56.95;;;21.90;91.80;;;;;;4978524;28;90397;-46
2023/09/01 11:30:53;;;;;;;107.40;56.22;;;21.90;91.80;;;;;;4984756;28;90281;-44
2023/09/01 11:33:22;;;;;;;107.60;56.33;;;21.80;92.00;;;;;;4991025;28;90335;-47
2023/09/01 11:35:49;;;;;;;109.57;56.55;;;21.70;91.90;;;;;;4985504;28;90121;-45
2023/09/01 11:38:19;;;;;;;107.13;55.90;;;21.80;92.10;;;;;;4993387;28;89375;-45
2023/09/01 11:40:46;;;;;;;107.57;56.60;;;21.70;92.70;;;;;;4989792;28;91560;-45
2023/09/01 11:43:12;;;;;;;108.70;56.28;;;21.50;93.10;;;;;;4985189;28;91321;-46
2023/09/01 11:45:48;;;;;;;107.55;56.28;;;21.60;93.00;;;;;;4991195;28;89575;-44
2023/09/01 11:48:24;;;;;;;107.35;56.20;;;21.80;91.90;;;;;;4991913;28;89384;-46
2023/09/01 11:50:54;;;;;;;108.18;56.25;;;22.00;92.20;;;;;;4988640;28;88989;-44
2023/09/01 11:53:24;;;;;;;109.82;56.88;;;22.10;92.80;;;;;;4989600;28;92122;-45
2023/09/01 11:55:50;;;;;;;107.80;56.42;;;22.30;90.90;;;;;;4992789;28;90029;-47
2023/09/01 11:58:16;;;;;;;109.30;56.95;;;22.40;92.20;;;;;;4986325;28;90456;-45
2023/09/01 12:00:42;;;;;;;109.25;56.33;;;22.50;89.40;;;;;;4987928;28;90115;-45
2023/09/01 12:03:08;;;;;;;110.43;56.53;;;22.60;90.30;;;;;;4991102;28;91506;-46
2023/09/01 12:05:35;;;;;;;108.68;56.42;;;22.70;90.30;;;;;;4984964;28;91459;-47
2023/09/01 12:08:03;;;;;;;108.97;56.58;;;22.70;89.90;;;;;;4985399;28;91789;-45
2023/09/01 12:10:29;;;;;;;108.78;56.50;;;22.80;89.10;;;;;;4984096;28;92962;-45
2023/09/01 12:13:24;;;;;;;108.97;56.67;;;22.70;88.50;;;;;;4987309;28;90019;-45
2023/09/01 12:16:03;;;;;;;109.10;56.42;;;22.90;88.70;;;;;;4986378;28;90451;-53
2023/09/01 12:18:40;;;;;;;109.00;55.90;;;22.90;85.20;;;;;;4978939;28;90163;-49
2023/09/01 12:21:07;;;;;;;108.22;56.30;;;22.80;86.10;;;;;;4987039;28;91964;-54
2023/09/01 12:23:42;;;;;;;108.20;55.97;;;22.80;85.60;;;;;;4992995;28;91185;-52